Hay River, Canada
Current Conditions -  °F | °C
As of 11:00 AM on Tuesday 21 Oct 2014 (Local Time) from CYHY Reporting Station
Moderate Fog Moderate Fog  
Wind Chill: 30°   Ceiling: 100
Heat Index: 30°   Visibility: 0.25mi
Dew Point: 30°   Wind: 2mph
Humidity: 100%   Direction: NA
Pressure: 29.45"   Gusts: NA
Location:  60.82°N, 115.78°W
Report Text: CYHY 211700Z VRB02KT 1/4SM FZFG BKN001 M01/M01 A2945 RMK FG7SF1 SF TR SLP983
Loading
Personal Weather Stations






























Interactive Weather Map
Tropical Storm Tracking
New forecast layout! Learn more

10-Day Weather Forecast

Advertisements
Track Severe Weather on mobile